Kuroki, North Dakota
Current Conditions -  °F | °C
As of 12:58 AM on Friday 28 Nov 2014 (Local Time) from KMIB Reporting Station
Overcast Overcast  
Wind Chill: -8°   Ceiling: 1500
Heat Index:   Visibility: 10mi
Dew Point:   Wind: 15mph
Humidity: 88%   Direction: 120°ESE
Pressure: 29.87"   Gusts: NA
Location:  48.9464°N, 101.365°W
Report Text: KMIB 280658Z AUTO 12013KT 10SM SCT004 BKN015 OVC026 M13/M14 A2987 RMK AO2 VIS 3/4 RWY29 SLP157 T11291145
Loading
Personal Weather Stations






























Interactive Weather Map New forecast layout! Learn more

10-Day Weather Forecast

Advertisements
Track Severe Weather on mobile